Sks Doda — LANE7 — position and weather

sailwx.info

Track history (hours):
 
Tides and Currents Weather Stations Pressure Air Temp Water Temp Dewpoint Dewpoint Depression Visibility Wind Speed Wind Dir Waves Ship Positions

Sks Doda

Last reported at 2017-Nov-17 17:48 UTC. Time now 2017-Nov-25 05:53 UTC.
Position N 36°23' E 014°47'.

Length 250 m; draft 13.5 m.

Type: Tanker. MMSI: 259984000.

Date/timePositionNaut miles runAvg speedWind from/ knotsBaromVisibWave heightAir tempDewpointWater temp
2017-Nov-17 17:48N 36°23' E 014°47'413.7
2017-Nov-17 17:30N 36°24' E 014°42'713.9
2017-Nov-17 17:00N 36°27' E 014°34'713.9
2017-Nov-17 16:30N 36°31' E 014°27'713.8
2017-Nov-17 16:00N 36°34' E 014°19'713.7
2017-Nov-17 15:30N 36°37' E 014°12'1113.9
2017-Nov-17 14:42N 36°43' E 013°59'314.1
2017-Nov-17 14:27N 36°44' E 013°56'614.3
2017-Nov-17 14:00N 36°48' E 013°49'714.1
2017-Nov-17 13:30N 36°52' E 013°41'  
2017-Nov-14 16:39N 36°00' W 005°12'217.0
2017-Nov-14 16:30N 35°60' W 005°15'917.4
2017-Nov-14 16:00N 35°58' W 005°26'17413.0
2017-Nov-14 02:38N 36°26' W 008°58'213.3
2017-Nov-14 02:30N 36°26' W 009°00'913.1
2017-Nov-14 01:51N 36°28' W 009°11'613.0
2017-Nov-14 01:24N 36°29' W 009°18'4312.9
2017-Nov-13 22:02N 37°07' W 009°44'113.1
2017-Nov-13 21:56N 37°09' W 009°45'66513.3
2017-Nov-11 19:50N 47°58' W 006°34'513.9
2017-Nov-11 19:29N 48°03' W 006°31'713.9
2017-Nov-11 19:00N 48°09' W 006°26'714.0
2017-Nov-11 18:29N 48°15' W 006°21'714.3
2017-Nov-11 17:58N 48°21' W 006°15'4314.5
2017-Nov-11 15:00N 48°57' W 005°39'9212.8
2017-Nov-11 07:48N 49°43' W 003°37'711.8
2017-Nov-11 07:14N 49°47' W 003°28'312.1
2017-Nov-11 07:00N 49°48' W 003°24'612.2
2017-Nov-11 06:30N 49°51' W 003°16'712.3
2017-Nov-11 05:59N 49°55' W 003°08'612.1
2017-Nov-11 05:30N 49°57' W 002°60'612.2
2017-Nov-11 05:00N 49°59' W 002°50'612.0
2017-Nov-11 04:30N 50°01' W 002°42'611.7
2017-Nov-11 04:00N 50°03' W 002°33'2810.3
2017-Nov-11 01:15N 50°11' W 001°51'2 9.6
2017-Nov-11 01:00N 50°12' W 001°47'5 9.6
2017-Nov-11 00:30N 50°13' W 001°40'510.0
2017-Nov-10 23:59N 50°14' W 001°32'510.9
2017-Nov-10 23:30N 50°15' W 001°24'3613.0
2017-Nov-10 20:43N 50°26' W 000°29'314.3
2017-Nov-10 20:30N 50°26' W 000°25'714.2
2017-Nov-10 20:00N 50°28' W 000°14'714.2
2017-Nov-10 19:30N 50°30' W 000°04'714.1
2017-Nov-10 19:00N 50°32' E 000°07'714.0
2017-Nov-10 18:30N 50°34' E 000°18'713.9
2017-Nov-10 18:00N 50°36' E 000°28'713.5
2017-Nov-10 17:30N 50°39' E 000°38'713.6
2017-Nov-10 17:00N 50°43' E 000°47'713.2
2017-Nov-10 16:30N 50°46' E 000°55'612.8
2017-Nov-10 16:00N 50°50' E 001°04'612.6
2017-Nov-10 15:30N 50°54' E 001°11'612.3
2017-Nov-10 15:00N 50°59' E 001°18'611.9
2017-Nov-10 14:30N 51°03' E 001°24'613.1
2017-Nov-10 14:00N 51°07' E 001°32'713.8
2017-Nov-10 13:30N 51°11' E 001°41'713.8
2017-Nov-10 13:01N 51°16' E 001°49'714.4
2017-Nov-10 12:31N 51°22' E 001°55'510.9
2017-Nov-10 12:00N 51°24' E 002°03'510.7
2017-Nov-10 11:30N 51°22' E 002°11'912.9
2017-Nov-10 10:48N 51°22' E 002°26'613.4
2017-Nov-10 10:22N 51°23' E 002°35'512.2
2017-Nov-10 09:57N 51°23' E 002°43'4 8.8
2017-Nov-10 09:30N 51°25' E 002°48'713.6
2017-Nov-10 09:00N 51°25' E 002°59'713.3
2017-Nov-10 08:30N 51°24' E 003°10'713.6
2017-Nov-10 08:01N 51°24' E 003°20'713.6
2017-Nov-10 07:30N 51°25' E 003°31'4 7.6
2017-Nov-10 07:00N 51°26' E 003°37'5 9.9
2017-Nov-10 06:30N 51°23' E 003°43'3 5.4
2017-Nov-10 06:00N 51°21' E 003°46'0 0.1
2017-Nov-10 05:30N 51°21' E 003°46'0 0.0
2017-Nov-10 05:00N 51°21' E 003°46'0 0.0
2017-Nov-10 04:30N 51°21' E 003°46'0 0.0
2017-Nov-10 03:57N 51°21' E 003°46'0 0.0
2017-Nov-10 03:30N 51°21' E 003°46'0 0.0
2017-Nov-10 02:57N 51°21' E 003°46'0 0.0
2017-Nov-10 02:30N 51°21' E 003°46'0 0.0
2017-Nov-10 02:00N 51°21' E 003°46'0 0.0
2017-Nov-10 01:30N 51°21' E 003°46'0 0.0
2017-Nov-10 00:57N 51°21' E 003°46'0 0.0
2017-Nov-10 00:30N 51°21' E 003°46'0 0.0
2017-Nov-09 23:57N 51°21' E 003°46'0 0.0
2017-Nov-09 23:27N 51°21' E 003°46'0 0.0
2017-Nov-09 23:00N 51°21' E 003°46'0 0.0
2017-Nov-09 22:27N 51°21' E 003°46'0 0.0
2017-Nov-09 22:00N 51°21' E 003°46'0 0.0
2017-Nov-09 21:30N 51°21' E 003°46'0 0.0
2017-Nov-09 21:00N 51°21' E 003°46'0 0.0
2017-Nov-09 20:30N 51°21' E 003°46'0 0.0
2017-Nov-09 19:57N 51°21' E 003°46'0 0.0
2017-Nov-09 19:30N 51°21' E 003°46'0 0.0
2017-Nov-09 19:00N 51°21' E 003°46'0 0.0
2017-Nov-09 18:27N 51°21' E 003°46'0 0.0
2017-Nov-09 18:00N 51°21' E 003°46'0 0.0
2017-Nov-09 17:30N 51°21' E 003°46'0 0.0
2017-Nov-09 17:00N 51°21' E 003°46'0 0.0
2017-Nov-09 16:27N 51°21' E 003°46'0 0.0
2017-Nov-09 16:00N 51°21' E 003°46'0 0.0
2017-Nov-09 15:30N 51°21' E 003°46'0 0.0
2017-Nov-09 15:00N 51°21' E 003°46'0 0.0
2017-Nov-09 14:30N 51°21' E 003°46'0 0.0
2017-Nov-09 13:45N 51°21' E 003°46'0 0.0
2017-Nov-09 13:30N 51°21' E 003°46'0 0.0
2017-Nov-09 12:57N 51°21' E 003°46'0 0.0
2017-Nov-09 12:27N 51°21' E 003°46'0 0.0
2017-Nov-09 11:57N 51°21' E 003°46'0 0.0
2017-Nov-09 11:27N 51°21' E 003°46'0 0.0
2017-Nov-09 10:57N 51°21' E 003°46'0 0.0
2017-Nov-09 10:27N 51°21' E 003°46'0 0.0
2017-Nov-09 10:00N 51°21' E 003°46'0 0.0
2017-Nov-09 09:30N 51°21' E 003°46'0 0.0
2017-Nov-09 09:00N 51°21' E 003°46'0 0.0
2017-Nov-09 08:18N 51°21' E 003°46'0 0.0
2017-Nov-09 07:54N 51°21' E 003°46'0 0.0
2017-Nov-09 07:27N 51°21' E 003°46'0 0.0
2017-Nov-09 07:00N 51°21' E 003°46'0 0.0
2017-Nov-09 06:30N 51°21' E 003°46'0 0.0
2017-Nov-09 06:00N 51°21' E 003°46'0 0.0
2017-Nov-09 05:27N 51°21' E 003°46'0 0.0
2017-Nov-09 04:57N 51°21' E 003°46'0 0.0
2017-Nov-09 04:27N 51°21' E 003°46'0 0.0
2017-Nov-09 03:57N 51°21' E 003°46'0 0.0
2017-Nov-09 03:30N 51°21' E 003°46'0 0.0
2017-Nov-09 02:57N 51°21' E 003°46'0 0.0
2017-Nov-09 02:30N 51°21' E 003°46'0 0.0
2017-Nov-09 01:54N 51°21' E 003°46'0 0.0
2017-Nov-09 01:30N 51°21' E 003°46'0 0.0
2017-Nov-09 01:00N 51°21' E 003°46'0 0.0
2017-Nov-09 00:27N 51°21' E 003°46'0 0.0
2017-Nov-08 23:54N 51°21' E 003°46'0 0.0
2017-Nov-08 23:27N 51°21' E 003°46'0 0.0
2017-Nov-08 23:00N 51°21' E 003°46'0 0.0
2017-Nov-08 22:21N 51°21' E 003°46'0 0.0
2017-Nov-08 22:00N 51°21' E 003°46'0 0.0
2017-Nov-08 21:24N 51°21' E 003°46'0 0.0
2017-Nov-08 20:57N 51°21' E 003°46'0 0.0
2017-Nov-08 20:15N 51°21' E 003°46'0 0.0
2017-Nov-08 19:51N 51°21' E 003°46'0 0.0
2017-Nov-08 19:30N 51°21' E 003°46'0 0.0
2017-Nov-08 18:57N 51°21' E 003°46'0 0.0
2017-Nov-08 18:27N 51°21' E 003°46'0 0.0
2017-Nov-08 18:00N 51°21' E 003°46'0 0.0
2017-Nov-08 17:30N 51°21' E 003°46'0 0.0
2017-Nov-08 17:00N 51°21' E 003°46'0 0.0
2017-Nov-08 16:24N 51°21' E 003°46'0 0.0
2017-Nov-08 15:57N 51°21' E 003°46'0 0.0
2017-Nov-08 15:27N 51°21' E 003°46'0 0.0
2017-Nov-08 15:00N 51°21' E 003°46'0 0.0
2017-Nov-08 14:27N 51°21' E 003°46'0 0.0
2017-Nov-08 14:00N 51°21' E 003°46'0 0.0
2017-Nov-08 13:27N 51°21' E 003°46'0 0.0
2017-Nov-08 13:00N 51°21' E 003°46'0 0.0
2017-Nov-08 12:30N 51°21' E 003°46'0 0.0
2017-Nov-08 11:57N 51°21' E 003°46'0 0.0
2017-Nov-08 11:30N 51°21' E 003°46'0 0.0
2017-Nov-08 10:57N 51°21' E 003°46'0 0.0
2017-Nov-08 10:30N 51°21' E 003°46'0 0.0
2017-Nov-08 10:00N 51°21' E 003°46'0 0.0
2017-Nov-08 09:30N 51°21' E 003°46'0 0.0
2017-Nov-08 08:57N 51°21' E 003°46'0 0.0
2017-Nov-08 08:27N 51°21' E 003°46'0 0.0
2017-Nov-08 07:54N 51°21' E 003°46'0 0.0
2017-Nov-08 07:27N 51°21' E 003°46'0 0.0
2017-Nov-08 06:57N 51°21' E 003°46'0 0.0
2017-Nov-08 06:30N 51°21' E 003°46'0 0.0
2017-Nov-08 05:57N 51°21' E 003°46'0 0.0
2017-Nov-08 05:27N 51°21' E 003°46'0 0.0
2017-Nov-08 05:00N 51°21' E 003°46'0 0.0
2017-Nov-08 04:27N 51°21' E 003°46'0 0.0
2017-Nov-08 04:00N 51°21' E 003°46'0 0.0
2017-Nov-08 03:30N 51°21' E 003°46'0 0.0
2017-Nov-08 03:00N 51°21' E 003°46'0 0.0
2017-Nov-08 02:30N 51°21' E 003°46'0 0.0
2017-Nov-08 02:00N 51°21' E 003°46'0 0.0
2017-Nov-08 01:30N 51°21' E 003°46'0 0.0
2017-Nov-08 01:00N 51°21' E 003°46'0 0.0
2017-Nov-08 00:30N 51°21' E 003°46'0 0.0
2017-Nov-07 23:57N 51°21' E 003°46'0 0.0
2017-Nov-07 23:30N 51°21' E 003°46'0 0.0
2017-Nov-07 23:00N 51°21' E 003°46'0 0.0
2017-Nov-07 22:27N 51°21' E 003°46'0 0.0
2017-Nov-07 22:00N 51°21' E 003°46'0 0.0
2017-Nov-07 21:27N 51°21' E 003°46'0 0.0
2017-Nov-07 21:00N 51°21' E 003°46'0 0.0
2017-Nov-07 20:27N 51°21' E 003°46'0 0.0
2017-Nov-07 20:00N 51°21' E 003°46'0 0.0
2017-Nov-07 19:27N 51°21' E 003°46'0 0.0
2017-Nov-07 19:00N 51°21' E 003°46'0 0.0
2017-Nov-07 18:30N 51°21' E 003°46'0 0.0
2017-Nov-07 18:00N 51°21' E 003°46'  
Track history (hours):
 
Tides and Currents Weather Stations Pressure Air Temp Water Temp Dewpoint Dewpoint Depression Visibility Wind Speed Wind Dir Waves Ship Positions

Sks Doda

Last reported at 2017-Nov-17 17:48 UTC. Time now 2017-Nov-25 05:53 UTC.
Position N 36°23' E 014°47'.

Length 250 m; draft 13.5 m.

Type: Tanker. MMSI: 259984000.

Date/timePositionNaut miles runAvg speedWind from/ knotsBaromVisibWave heightAir tempDewpointWater temp
2017-Nov-17 17:48N 36°23' E 014°47'413.7
2017-Nov-17 17:30N 36°24' E 014°42'713.9
2017-Nov-17 17:00N 36°27' E 014°34'713.9
2017-Nov-17 16:30N 36°31' E 014°27'713.8
2017-Nov-17 16:00N 36°34' E 014°19'713.7
2017-Nov-17 15:30N 36°37' E 014°12'1113.9
2017-Nov-17 14:42N 36°43' E 013°59'314.1
2017-Nov-17 14:27N 36°44' E 013°56'614.3
2017-Nov-17 14:00N 36°48' E 013°49'714.1
2017-Nov-17 13:30N 36°52' E 013°41'  
2017-Nov-14 16:39N 36°00' W 005°12'217.0
2017-Nov-14 16:30N 35°60' W 005°15'917.4
2017-Nov-14 16:00N 35°58' W 005°26'17413.0
2017-Nov-14 02:38N 36°26' W 008°58'213.3
2017-Nov-14 02:30N 36°26' W 009°00'913.1
2017-Nov-14 01:51N 36°28' W 009°11'613.0
2017-Nov-14 01:24N 36°29' W 009°18'4312.9
2017-Nov-13 22:02N 37°07' W 009°44'113.1
2017-Nov-13 21:56N 37°09' W 009°45'66513.3
2017-Nov-11 19:50N 47°58' W 006°34'513.9
2017-Nov-11 19:29N 48°03' W 006°31'713.9
2017-Nov-11 19:00N 48°09' W 006°26'714.0
2017-Nov-11 18:29N 48°15' W 006°21'714.3
2017-Nov-11 17:58N 48°21' W 006°15'4314.5
2017-Nov-11 15:00N 48°57' W 005°39'9212.8
2017-Nov-11 07:48N 49°43' W 003°37'711.8
2017-Nov-11 07:14N 49°47' W 003°28'312.1
2017-Nov-11 07:00N 49°48' W 003°24'612.2
2017-Nov-11 06:30N 49°51' W 003°16'712.3
2017-Nov-11 05:59N 49°55' W 003°08'612.1
2017-Nov-11 05:30N 49°57' W 002°60'612.2
2017-Nov-11 05:00N 49°59' W 002°50'612.0
2017-Nov-11 04:30N 50°01' W 002°42'611.7
2017-Nov-11 04:00N 50°03' W 002°33'2810.3
2017-Nov-11 01:15N 50°11' W 001°51'2 9.6
2017-Nov-11 01:00N 50°12' W 001°47'5 9.6
2017-Nov-11 00:30N 50°13' W 001°40'510.0
2017-Nov-10 23:59N 50°14' W 001°32'510.9
2017-Nov-10 23:30N 50°15' W 001°24'3613.0
2017-Nov-10 20:43N 50°26' W 000°29'314.3
2017-Nov-10 20:30N 50°26' W 000°25'714.2
2017-Nov-10 20:00N 50°28' W 000°14'714.2
2017-Nov-10 19:30N 50°30' W 000°04'714.1
2017-Nov-10 19:00N 50°32' E 000°07'714.0
2017-Nov-10 18:30N 50°34' E 000°18'713.9
2017-Nov-10 18:00N 50°36' E 000°28'713.5
2017-Nov-10 17:30N 50°39' E 000°38'713.6
2017-Nov-10 17:00N 50°43' E 000°47'713.2
2017-Nov-10 16:30N 50°46' E 000°55'612.8
2017-Nov-10 16:00N 50°50' E 001°04'612.6
2017-Nov-10 15:30N 50°54' E 001°11'612.3
2017-Nov-10 15:00N 50°59' E 001°18'611.9
2017-Nov-10 14:30N 51°03' E 001°24'613.1
2017-Nov-10 14:00N 51°07' E 001°32'713.8
2017-Nov-10 13:30N 51°11' E 001°41'713.8
2017-Nov-10 13:01N 51°16' E 001°49'714.4
2017-Nov-10 12:31N 51°22' E 001°55'510.9
2017-Nov-10 12:00N 51°24' E 002°03'510.7
2017-Nov-10 11:30N 51°22' E 002°11'912.9
2017-Nov-10 10:48N 51°22' E 002°26'613.4
2017-Nov-10 10:22N 51°23' E 002°35'512.2
2017-Nov-10 09:57N 51°23' E 002°43'4 8.8
2017-Nov-10 09:30N 51°25' E 002°48'713.6
2017-Nov-10 09:00N 51°25' E 002°59'713.3
2017-Nov-10 08:30N 51°24' E 003°10'713.6
2017-Nov-10 08:01N 51°24' E 003°20'713.6
2017-Nov-10 07:30N 51°25' E 003°31'4 7.6
2017-Nov-10 07:00N 51°26' E 003°37'5 9.9
2017-Nov-10 06:30N 51°23' E 003°43'3 5.4
2017-Nov-10 06:00N 51°21' E 003°46'0 0.1
2017-Nov-10 05:30N 51°21' E 003°46'0 0.0
2017-Nov-10 05:00N 51°21' E 003°46'0 0.0
2017-Nov-10 04:30N 51°21' E 003°46'0 0.0
2017-Nov-10 03:57N 51°21' E 003°46'0 0.0
2017-Nov-10 03:30N 51°21' E 003°46'0 0.0
2017-Nov-10 02:57N 51°21' E 003°46'0 0.0
2017-Nov-10 02:30N 51°21' E 003°46'0 0.0
2017-Nov-10 02:00N 51°21' E 003°46'0 0.0
2017-Nov-10 01:30N 51°21' E 003°46'0 0.0
2017-Nov-10 00:57N 51°21' E 003°46'0 0.0
2017-Nov-10 00:30N 51°21' E 003°46'0 0.0
2017-Nov-09 23:57N 51°21' E 003°46'0 0.0
2017-Nov-09 23:27N 51°21' E 003°46'0 0.0
2017-Nov-09 23:00N 51°21' E 003°46'0 0.0
2017-Nov-09 22:27N 51°21' E 003°46'0 0.0
2017-Nov-09 22:00N 51°21' E 003°46'0 0.0
2017-Nov-09 21:30N 51°21' E 003°46'0 0.0
2017-Nov-09 21:00N 51°21' E 003°46'0 0.0
2017-Nov-09 20:30N 51°21' E 003°46'0 0.0
2017-Nov-09 19:57N 51°21' E 003°46'0 0.0
2017-Nov-09 19:30N 51°21' E 003°46'0 0.0
2017-Nov-09 19:00N 51°21' E 003°46'0 0.0
2017-Nov-09 18:27N 51°21' E 003°46'0 0.0
2017-Nov-09 18:00N 51°21' E 003°46'0 0.0
2017-Nov-09 17:30N 51°21' E 003°46'0 0.0
2017-Nov-09 17:00N 51°21' E 003°46'0 0.0
2017-Nov-09 16:27N 51°21' E 003°46'0 0.0
2017-Nov-09 16:00N 51°21' E 003°46'0 0.0
2017-Nov-09 15:30N 51°21' E 003°46'0 0.0
2017-Nov-09 15:00N 51°21' E 003°46'0 0.0
2017-Nov-09 14:30N 51°21' E 003°46'0 0.0
2017-Nov-09 13:45N 51°21' E 003°46'0 0.0
2017-Nov-09 13:30N 51°21' E 003°46'0 0.0
2017-Nov-09 12:57N 51°21' E 003°46'0 0.0
2017-Nov-09 12:27N 51°21' E 003°46'0 0.0
2017-Nov-09 11:57N 51°21' E 003°46'0 0.0
2017-Nov-09 11:27N 51°21' E 003°46'0 0.0
2017-Nov-09 10:57N 51°21' E 003°46'0 0.0
2017-Nov-09 10:27N 51°21' E 003°46'0 0.0
2017-Nov-09 10:00N 51°21' E 003°46'0 0.0
2017-Nov-09 09:30N 51°21' E 003°46'0 0.0
2017-Nov-09 09:00N 51°21' E 003°46'0 0.0
2017-Nov-09 08:18N 51°21' E 003°46'0 0.0
2017-Nov-09 07:54N 51°21' E 003°46'0 0.0
2017-Nov-09 07:27N 51°21' E 003°46'0 0.0
2017-Nov-09 07:00N 51°21' E 003°46'0 0.0
2017-Nov-09 06:30N 51°21' E 003°46'0 0.0
2017-Nov-09 06:00N 51°21' E 003°46'0 0.0
2017-Nov-09 05:27N 51°21' E 003°46'0 0.0
2017-Nov-09 04:57N 51°21' E 003°46'0 0.0
2017-Nov-09 04:27N 51°21' E 003°46'0 0.0
2017-Nov-09 03:57N 51°21' E 003°46'0 0.0
2017-Nov-09 03:30N 51°21' E 003°46'0 0.0
2017-Nov-09 02:57N 51°21' E 003°46'0 0.0
2017-Nov-09 02:30N 51°21' E 003°46'0 0.0
2017-Nov-09 01:54N 51°21' E 003°46'0 0.0
2017-Nov-09 01:30N 51°21' E 003°46'0 0.0
2017-Nov-09 01:00N 51°21' E 003°46'0 0.0
2017-Nov-09 00:27N 51°21' E 003°46'0 0.0
2017-Nov-08 23:54N 51°21' E 003°46'0 0.0
2017-Nov-08 23:27N 51°21' E 003°46'0 0.0
2017-Nov-08 23:00N 51°21' E 003°46'0 0.0
2017-Nov-08 22:21N 51°21' E 003°46'0 0.0
2017-Nov-08 22:00N 51°21' E 003°46'0 0.0
2017-Nov-08 21:24N 51°21' E 003°46'0 0.0
2017-Nov-08 20:57N 51°21' E 003°46'0 0.0
2017-Nov-08 20:15N 51°21' E 003°46'0 0.0
2017-Nov-08 19:51N 51°21' E 003°46'0 0.0
2017-Nov-08 19:30N 51°21' E 003°46'0 0.0
2017-Nov-08 18:57N 51°21' E 003°46'0 0.0
2017-Nov-08 18:27N 51°21' E 003°46'0 0.0
2017-Nov-08 18:00N 51°21' E 003°46'0 0.0
2017-Nov-08 17:30N 51°21' E 003°46'0 0.0
2017-Nov-08 17:00N 51°21' E 003°46'0 0.0
2017-Nov-08 16:24N 51°21' E 003°46'0 0.0
2017-Nov-08 15:57N 51°21' E 003°46'0 0.0
2017-Nov-08 15:27N 51°21' E 003°46'0 0.0
2017-Nov-08 15:00N 51°21' E 003°46'0 0.0
2017-Nov-08 14:27N 51°21' E 003°46'0 0.0
2017-Nov-08 14:00N 51°21' E 003°46'0 0.0
2017-Nov-08 13:27N 51°21' E 003°46'0 0.0
2017-Nov-08 13:00N 51°21' E 003°46'0 0.0
2017-Nov-08 12:30N 51°21' E 003°46'0 0.0
2017-Nov-08 11:57N 51°21' E 003°46'0 0.0
2017-Nov-08 11:30N 51°21' E 003°46'0 0.0
2017-Nov-08 10:57N 51°21' E 003°46'0 0.0
2017-Nov-08 10:30N 51°21' E 003°46'0 0.0
2017-Nov-08 10:00N 51°21' E 003°46'0 0.0
2017-Nov-08 09:30N 51°21' E 003°46'0 0.0
2017-Nov-08 08:57N 51°21' E 003°46'0 0.0
2017-Nov-08 08:27N 51°21' E 003°46'0 0.0
2017-Nov-08 07:54N 51°21' E 003°46'0 0.0
2017-Nov-08 07:27N 51°21' E 003°46'0 0.0
2017-Nov-08 06:57N 51°21' E 003°46'0 0.0
2017-Nov-08 06:30N 51°21' E 003°46'0 0.0
2017-Nov-08 05:57N 51°21' E 003°46'0 0.0
2017-Nov-08 05:27N 51°21' E 003°46'0 0.0
2017-Nov-08 05:00N 51°21' E 003°46'0 0.0
2017-Nov-08 04:27N 51°21' E 003°46'0 0.0
2017-Nov-08 04:00N 51°21' E 003°46'0 0.0
2017-Nov-08 03:30N 51°21' E 003°46'0 0.0
2017-Nov-08 03:00N 51°21' E 003°46'0 0.0
2017-Nov-08 02:30N 51°21' E 003°46'0 0.0
2017-Nov-08 02:00N 51°21' E 003°46'0 0.0
2017-Nov-08 01:30N 51°21' E 003°46'0 0.0
2017-Nov-08 01:00N 51°21' E 003°46'0 0.0
2017-Nov-08 00:30N 51°21' E 003°46'0 0.0
2017-Nov-07 23:57N 51°21' E 003°46'0 0.0
2017-Nov-07 23:30N 51°21' E 003°46'0 0.0
2017-Nov-07 23:00N 51°21' E 003°46'0 0.0
2017-Nov-07 22:27N 51°21' E 003°46'0 0.0
2017-Nov-07 22:00N 51°21' E 003°46'0 0.0
2017-Nov-07 21:27N 51°21' E 003°46'0 0.0
2017-Nov-07 21:00N 51°21' E 003°46'0 0.0
2017-Nov-07 20:27N 51°21' E 003°46'0 0.0
2017-Nov-07 20:00N 51°21' E 003°46'0 0.0
2017-Nov-07 19:27N 51°21' E 003°46'0 0.0
2017-Nov-07 19:00N 51°21' E 003°46'0 0.0
2017-Nov-07 18:30N 51°21' E 003°46'0 0.0
2017-Nov-07 18:00N 51°21' E 003°46'  

Dump ship's entire track history